CMA CGM Tosca — FMEL — position and weather

sailwx.info

Track history (hours):
 
Tides and Currents Weather Stations Pressure Air Temp Water Temp Dewpoint Dewpoint Depression Visibility Wind Speed Wind Dir Waves Ship Positions

CMA CGM Tosca

Last reported at 2016-Nov-24 20:12 UTC. Time now 2016-Dec-08 20:08 UTC.
Position N 36°21' E 014°40'.
Warning: this ship's position is 13 days out of date.

Length 334 m; draft 14.3 m.

Type: Cargo ship. MMSI: 228335900.

Date/timePositionNaut miles runAvg speedWind from/ knotsBaromVisibWave heightAir tempDewpointWater temp
2016-Nov-24 20:12N 36°21' E 014°40'1320.8
2016-Nov-24 19:33N 36°27' E 014°25'2121.0
2016-Nov-24 18:33N 36°38' E 014°03'2121.1
2016-Nov-24 17:34N 36°49' E 013°41'23020.0
2016-Nov-24 06:04N 38°55' E 009°37'1020.1
2016-Nov-24 05:32N 38°60' E 009°25'1616.3
2016-Nov-24 04:33N 39°07' E 009°06'6 5.7
2016-Nov-24 03:33N 39°13' E 009°04'0 0.4
2016-Nov-24 02:31N 39°13' E 009°04'0 0.0
2016-Nov-24 01:31N 39°13' E 009°04'0 0.0
2016-Nov-24 00:31N 39°13' E 009°04'0 0.0
2016-Nov-23 23:31N 39°13' E 009°04'0 0.0
2016-Nov-23 22:31N 39°13' E 009°04'0 0.0
2016-Nov-23 21:31N 39°13' E 009°04'0 0.0
2016-Nov-23 20:31N 39°13' E 009°04'0 0.0
2016-Nov-23 19:31N 39°13' E 009°04'0 0.0
2016-Nov-23 18:31N 39°13' E 009°04'0 0.0
2016-Nov-23 17:31N 39°13' E 009°04'0 0.0
2016-Nov-23 16:31N 39°13' E 009°04'0 0.0
2016-Nov-23 15:31N 39°13' E 009°04'0 0.0
2016-Nov-23 14:31N 39°13' E 009°04'0 0.0
2016-Nov-23 13:31N 39°13' E 009°04'0 0.0
2016-Nov-23 12:31N 39°13' E 009°04'0 0.0
2016-Nov-23 11:31N 39°13' E 009°04'0 0.0
2016-Nov-23 10:31N 39°13' E 009°04'0 0.0
2016-Nov-23 09:31N 39°13' E 009°04'0 0.0
2016-Nov-23 08:31N 39°13' E 009°04'0 0.0
2016-Nov-23 07:31N 39°13' E 009°04'0 0.0
2016-Nov-23 06:31N 39°13' E 009°04'0 0.0
2016-Nov-23 03:31N 39°13' E 009°04'0 0.0
2016-Nov-23 02:31N 39°13' E 009°04'0 0.0
2016-Nov-23 00:31N 39°13' E 009°04'0 0.1
2016-Nov-22 23:32N 39°13' E 009°04'5 5.5
2016-Nov-22 22:33N 39°08' E 009°06'2411.9
2016-Nov-22 20:33N 38°45' E 008°55'1514.7
2016-Nov-22 19:33N 38°38' E 008°39'27215.6
2016-Nov-22 02:10N 37°31' E 003°05'26116.4
2016-Nov-21 10:18N 36°22' W 002°10'2916.4
2016-Nov-21 08:33N 36°18' W 002°45'135 7.0
2016-Nov-20 13:06N 35°54' W 005°30'245 9.6
2016-Nov-19 11:28N 37°59' W 009°54'2010.5
2016-Nov-19 09:33N 38°18' W 009°59'2211.0
2016-Nov-19 07:34N 38°40' W 010°06'2110.7
2016-Nov-19 05:34N 39°01' W 010°06'1010.3
2016-Nov-19 04:33N 39°11' W 010°06'1110.9
2016-Nov-19 03:33N 39°22' W 010°06'60212.2
2016-Nov-17 02:13N 48°54' W 005°46'11112.8
2016-Nov-16 17:34N 49°50' W 003°20'1212.2
2016-Nov-16 16:33N 49°55' W 003°02'6515.5
2016-Nov-16 12:22N 50°15' W 001°25'3210.5
2016-Nov-16 09:19N 50°24' W 000°37'7 9.3
2016-Nov-16 08:32N 50°26' W 000°26'1110.6
2016-Nov-16 07:31N 50°29' W 000°10'1212.0
2016-Nov-16 06:33N 50°31' E 000°07'5512.6
2016-Nov-16 02:13N 50°58' E 001°23'7 9.9
2016-Nov-16 01:33N 51°03' E 001°29'4711.7
2016-Nov-15 21:33N 51°49' E 001°43'2311.7
2016-Nov-15 19:33N 51°34' E 001°14'1414.3
2016-Nov-15 18:33N 51°29' E 000°52'14 2.8
2016-Nov-15 13:33N 51°30' E 000°30'0 0.0
2016-Nov-15 12:33N 51°30' E 000°30'0 0.0
2016-Nov-15 11:33N 51°30' E 000°30'0 0.0
2016-Nov-15 10:33N 51°30' E 000°30'0 0.0
2016-Nov-15 07:33N 51°30' E 000°30'0 0.0
2016-Nov-15 06:33N 51°30' E 000°30'0 0.0
2016-Nov-15 05:53N 51°30' E 000°30'0 0.0
2016-Nov-15 03:34N 51°30' E 000°30'0 0.0
2016-Nov-15 02:34N 51°30' E 000°30'0 0.0
2016-Nov-15 00:34N 51°30' E 000°30'0 0.0
2016-Nov-14 23:43N 51°30' E 000°30'  
Track history (hours):
 
Tides and Currents Weather Stations Pressure Air Temp Water Temp Dewpoint Dewpoint Depression Visibility Wind Speed Wind Dir Waves Ship Positions

CMA CGM Tosca

Last reported at 2016-Nov-24 20:12 UTC. Time now 2016-Dec-08 20:08 UTC.
Position N 36°21' E 014°40'.
Warning: this ship's position is 13 days out of date.

Length 334 m; draft 14.3 m.

Type: Cargo ship. MMSI: 228335900.

Date/timePositionNaut miles runAvg speedWind from/ knotsBaromVisibWave heightAir tempDewpointWater temp
2016-Nov-24 20:12N 36°21' E 014°40'1320.8
2016-Nov-24 19:33N 36°27' E 014°25'2121.0
2016-Nov-24 18:33N 36°38' E 014°03'2121.1
2016-Nov-24 17:34N 36°49' E 013°41'23020.0
2016-Nov-24 06:04N 38°55' E 009°37'1020.1
2016-Nov-24 05:32N 38°60' E 009°25'1616.3
2016-Nov-24 04:33N 39°07' E 009°06'6 5.7
2016-Nov-24 03:33N 39°13' E 009°04'0 0.4
2016-Nov-24 02:31N 39°13' E 009°04'0 0.0
2016-Nov-24 01:31N 39°13' E 009°04'0 0.0
2016-Nov-24 00:31N 39°13' E 009°04'0 0.0
2016-Nov-23 23:31N 39°13' E 009°04'0 0.0
2016-Nov-23 22:31N 39°13' E 009°04'0 0.0
2016-Nov-23 21:31N 39°13' E 009°04'0 0.0
2016-Nov-23 20:31N 39°13' E 009°04'0 0.0
2016-Nov-23 19:31N 39°13' E 009°04'0 0.0
2016-Nov-23 18:31N 39°13' E 009°04'0 0.0
2016-Nov-23 17:31N 39°13' E 009°04'0 0.0
2016-Nov-23 16:31N 39°13' E 009°04'0 0.0
2016-Nov-23 15:31N 39°13' E 009°04'0 0.0
2016-Nov-23 14:31N 39°13' E 009°04'0 0.0
2016-Nov-23 13:31N 39°13' E 009°04'0 0.0
2016-Nov-23 12:31N 39°13' E 009°04'0 0.0
2016-Nov-23 11:31N 39°13' E 009°04'0 0.0
2016-Nov-23 10:31N 39°13' E 009°04'0 0.0
2016-Nov-23 09:31N 39°13' E 009°04'0 0.0
2016-Nov-23 08:31N 39°13' E 009°04'0 0.0
2016-Nov-23 07:31N 39°13' E 009°04'0 0.0
2016-Nov-23 06:31N 39°13' E 009°04'0 0.0
2016-Nov-23 03:31N 39°13' E 009°04'0 0.0
2016-Nov-23 02:31N 39°13' E 009°04'0 0.0
2016-Nov-23 00:31N 39°13' E 009°04'0 0.1
2016-Nov-22 23:32N 39°13' E 009°04'5 5.5
2016-Nov-22 22:33N 39°08' E 009°06'2411.9
2016-Nov-22 20:33N 38°45' E 008°55'1514.7
2016-Nov-22 19:33N 38°38' E 008°39'27215.6
2016-Nov-22 02:10N 37°31' E 003°05'26116.4
2016-Nov-21 10:18N 36°22' W 002°10'2916.4
2016-Nov-21 08:33N 36°18' W 002°45'135 7.0
2016-Nov-20 13:06N 35°54' W 005°30'245 9.6
2016-Nov-19 11:28N 37°59' W 009°54'2010.5
2016-Nov-19 09:33N 38°18' W 009°59'2211.0
2016-Nov-19 07:34N 38°40' W 010°06'2110.7
2016-Nov-19 05:34N 39°01' W 010°06'1010.3
2016-Nov-19 04:33N 39°11' W 010°06'1110.9
2016-Nov-19 03:33N 39°22' W 010°06'60212.2
2016-Nov-17 02:13N 48°54' W 005°46'11112.8
2016-Nov-16 17:34N 49°50' W 003°20'1212.2
2016-Nov-16 16:33N 49°55' W 003°02'6515.5
2016-Nov-16 12:22N 50°15' W 001°25'3210.5
2016-Nov-16 09:19N 50°24' W 000°37'7 9.3
2016-Nov-16 08:32N 50°26' W 000°26'1110.6
2016-Nov-16 07:31N 50°29' W 000°10'1212.0
2016-Nov-16 06:33N 50°31' E 000°07'5512.6
2016-Nov-16 02:13N 50°58' E 001°23'7 9.9
2016-Nov-16 01:33N 51°03' E 001°29'4711.7
2016-Nov-15 21:33N 51°49' E 001°43'2311.7
2016-Nov-15 19:33N 51°34' E 001°14'1414.3
2016-Nov-15 18:33N 51°29' E 000°52'14 2.8
2016-Nov-15 13:33N 51°30' E 000°30'0 0.0
2016-Nov-15 12:33N 51°30' E 000°30'0 0.0
2016-Nov-15 11:33N 51°30' E 000°30'0 0.0
2016-Nov-15 10:33N 51°30' E 000°30'0 0.0
2016-Nov-15 07:33N 51°30' E 000°30'0 0.0
2016-Nov-15 06:33N 51°30' E 000°30'0 0.0
2016-Nov-15 05:53N 51°30' E 000°30'0 0.0
2016-Nov-15 03:34N 51°30' E 000°30'0 0.0
2016-Nov-15 02:34N 51°30' E 000°30'0 0.0
2016-Nov-15 00:34N 51°30' E 000°30'0 0.0
2016-Nov-14 23:43N 51°30' E 000°30'  

Dump ship's entire track history